sensor_id;sensor_type;location;lat;lon;timestamp;P1;durP1;ratioP1;P2;durP2;ratioP2
40459;SDS011;26164;51.138;16.952;2023-07-20T00:00:50;7.03;;;2.88;;
40459;SDS011;26164;51.138;16.952;2023-07-20T00:03:30;9.48;;;3.25;;
40459;SDS011;26164;51.138;16.952;2023-07-20T00:05:56;8.07;;;3.38;;
40459;SDS011;26164;51.138;16.952;2023-07-20T00:08:22;8.18;;;3.60;;
40459;SDS011;26164;51.138;16.952;2023-07-20T00:10:47;7.78;;;3.65;;
40459;SDS011;26164;51.138;16.952;2023-07-20T00:13:14;7.32;;;4.40;;
40459;SDS011;26164;51.138;16.952;2023-07-20T00:15:41;7.70;;;4.60;;
40459;SDS011;26164;51.138;16.952;2023-07-20T00:18:07;17.55;;;8.32;;
40459;SDS011;26164;51.138;16.952;2023-07-20T00:20:33;13.02;;;7.45;;
40459;SDS011;26164;51.138;16.952;2023-07-20T00:22:58;14.13;;;7.35;;
40459;SDS011;26164;51.138;16.952;2023-07-20T00:25:24;10.50;;;5.70;;
40459;SDS011;26164;51.138;16.952;2023-07-20T00:27:50;9.07;;;5.63;;
40459;SDS011;26164;51.138;16.952;2023-07-20T00:30:16;10.88;;;5.78;;
40459;SDS011;26164;51.138;16.952;2023-07-20T00:32:44;9.40;;;5.50;;
40459;SDS011;26164;51.138;16.952;2023-07-20T00:35:10;8.75;;;4.90;;
40459;SDS011;26164;51.138;16.952;2023-07-20T00:37:36;12.20;;;5.50;;
40459;SDS011;26164;51.138;16.952;2023-07-20T00:40:03;9.95;;;4.88;;
40459;SDS011;26164;51.138;16.952;2023-07-20T00:42:30;9.02;;;5.40;;
40459;SDS011;26164;51.138;16.952;2023-07-20T00:44:56;10.63;;;4.55;;
40459;SDS011;26164;51.138;16.952;2023-07-20T00:47:21;8.93;;;4.78;;
40459;SDS011;26164;51.138;16.952;2023-07-20T00:49:48;7.72;;;4.53;;
40459;SDS011;26164;51.138;16.952;2023-07-20T00:52:13;11.40;;;4.43;;
40459;SDS011;26164;51.138;16.952;2023-07-20T00:54:42;9.73;;;4.22;;
40459;SDS011;26164;51.138;16.952;2023-07-20T00:57:08;6.65;;;4.18;;
40459;SDS011;26164;51.138;16.952;2023-07-20T00:59:35;9.25;;;4.72;;
40459;SDS011;26164;51.138;16.952;2023-07-20T01:02:01;10.68;;;6.30;;
40459;SDS011;26164;51.138;16.952;2023-07-20T01:04:28;10.65;;;6.32;;
40459;SDS011;26164;51.138;16.952;2023-07-20T01:09:34;11.57;;;6.95;;
40459;SDS011;26164;51.138;16.952;2023-07-20T01:14:31;11.70;;;7.40;;
40459;SDS011;26164;51.138;16.952;2023-07-20T01:16:57;11.63;;;6.82;;
40459;SDS011;26164;51.138;16.952;2023-07-20T01:19:24;11.93;;;7.22;;
40459;SDS011;26164;51.138;16.952;2023-07-20T01:22:03;11.70;;;7.20;;
40459;SDS011;26164;51.138;16.952;2023-07-20T01:32:26;18.08;;;9.10;;
40459;SDS011;26164;51.138;16.952;2023-07-20T01:34:53;19.13;;;9.40;;
40459;SDS011;26164;51.138;16.952;2023-07-20T01:37:19;14.50;;;9.82;;
40459;SDS011;26164;51.138;16.952;2023-07-20T01:39:47;13.95;;;8.43;;
40459;SDS011;26164;51.138;16.952;2023-07-20T01:42:12;14.25;;;8.85;;
40459;SDS011;26164;51.138;16.952;2023-07-20T01:44:38;17.92;;;9.05;;
40459;SDS011;26164;51.138;16.952;2023-07-20T01:47:04;14.70;;;7.38;;
40459;SDS011;26164;51.138;16.952;2023-07-20T01:49:30;19.50;;;7.20;;
40459;SDS011;26164;51.138;16.952;2023-07-20T01:51:55;13.57;;;7.47;;
40459;SDS011;26164;51.138;16.952;2023-07-20T01:54:21;12.05;;;7.15;;
40459;SDS011;26164;51.138;16.952;2023-07-20T01:56:47;12.68;;;6.85;;
40459;SDS011;26164;51.138;16.952;2023-07-20T01:59:13;9.18;;;5.90;;
40459;SDS011;26164;51.138;16.952;2023-07-20T02:01:38;11.20;;;6.57;;
40459;SDS011;26164;51.138;16.952;2023-07-20T02:04:05;12.30;;;5.85;;
40459;SDS011;26164;51.138;16.952;2023-07-20T02:06:31;14.05;;;6.88;;
40459;SDS011;26164;51.138;16.952;2023-07-20T02:08:57;10.38;;;6.18;;
40459;SDS011;26164;51.138;16.952;2023-07-20T02:11:23;11.77;;;6.25;;
40459;SDS011;26164;51.138;16.952;2023-07-20T02:13:48;11.02;;;6.82;;
40459;SDS011;26164;51.138;16.952;2023-07-20T02:16:14;12.93;;;7.03;;
40459;SDS011;26164;51.138;16.952;2023-07-20T02:18:40;12.15;;;6.25;;
40459;SDS011;26164;51.138;16.952;2023-07-20T02:21:07;13.48;;;6.07;;
40459;SDS011;26164;51.138;16.952;2023-07-20T02:23:33;9.13;;;5.65;;
40459;SDS011;26164;51.138;16.952;2023-07-20T02:25:58;10.93;;;6.10;;
40459;SDS011;26164;51.138;16.952;2023-07-20T02:28:24;13.38;;;6.10;;
40459;SDS011;26164;51.138;16.952;2023-07-20T02:30:50;8.18;;;5.70;;
40459;SDS011;26164;51.138;16.952;2023-07-20T02:33:15;12.10;;;6.00;;
40459;SDS011;26164;51.138;16.952;2023-07-20T02:35:41;12.02;;;5.32;;
40459;SDS011;26164;51.138;16.952;2023-07-20T02:38:07;9.75;;;5.10;;
40459;SDS011;26164;51.138;16.952;2023-07-20T02:40:33;16.73;;;5.50;;
40459;SDS011;26164;51.138;16.952;2023-07-20T02:42:59;9.25;;;5.60;;
40459;SDS011;26164;51.138;16.952;2023-07-20T02:45:26;7.63;;;5.10;;
40459;SDS011;26164;51.138;16.952;2023-07-20T02:47:51;9.88;;;5.80;;
40459;SDS011;26164;51.138;16.952;2023-07-20T02:50:17;11.27;;;6.53;;
40459;SDS011;26164;51.138;16.952;2023-07-20T02:52:43;14.95;;;6.20;;
40459;SDS011;26164;51.138;16.952;2023-07-20T02:55:09;11.25;;;6.85;;
40459;SDS011;26164;51.138;16.952;2023-07-20T02:57:35;12.60;;;6.30;;
40459;SDS011;26164;51.138;16.952;2023-07-20T03:00:02;18.88;;;6.22;;
40459;SDS011;26164;51.138;16.952;2023-07-20T03:02:29;12.27;;;6.65;;
40459;SDS011;26164;51.138;16.952;2023-07-20T03:04:55;9.38;;;6.13;;
40459;SDS011;26164;51.138;16.952;2023-07-20T03:07:22;10.40;;;6.05;;
40459;SDS011;26164;51.138;16.952;2023-07-20T03:09:48;11.77;;;6.57;;
40459;SDS011;26164;51.138;16.952;2023-07-20T03:12:14;7.78;;;5.43;;
40459;SDS011;26164;51.138;16.952;2023-07-20T03:14:41;11.15;;;6.53;;
40459;SDS011;26164;51.138;16.952;2023-07-20T03:17:07;19.80;;;7.88;;
40459;SDS011;26164;51.138;16.952;2023-07-20T03:19:34;12.63;;;8.70;;
40459;SDS011;26164;51.138;16.952;2023-07-20T03:22:00;20.98;;;11.20;;
40459;SDS011;26164;51.138;16.952;2023-07-20T03:24:25;20.02;;;11.95;;
40459;SDS011;26164;51.138;16.952;2023-07-20T03:26:52;15.30;;;11.07;;
40459;SDS011;26164;51.138;16.952;2023-07-20T03:29:18;16.45;;;11.13;;
40459;SDS011;26164;51.138;16.952;2023-07-20T03:31:45;16.52;;;9.00;;
40459;SDS011;26164;51.138;16.952;2023-07-20T03:34:11;19.38;;;8.88;;
40459;SDS011;26164;51.138;16.952;2023-07-20T03:36:37;15.55;;;8.13;;
40459;SDS011;26164;51.138;16.952;2023-07-20T03:39:03;15.70;;;8.52;;
40459;SDS011;26164;51.138;16.952;2023-07-20T03:41:29;13.45;;;8.63;;
40459;SDS011;26164;51.138;16.952;2023-07-20T03:43:55;12.00;;;8.85;;
40459;SDS011;26164;51.138;16.952;2023-07-20T03:46:20;14.13;;;8.50;;
40459;SDS011;26164;51.138;16.952;2023-07-20T03:48:46;13.57;;;8.85;;
40459;SDS011;26164;51.138;16.952;2023-07-20T03:51:12;15.95;;;9.38;;
40459;SDS011;26164;51.138;16.952;2023-07-20T03:53:38;12.88;;;8.90;;
40459;SDS011;26164;51.138;16.952;2023-07-20T03:56:04;19.02;;;8.85;;
40459;SDS011;26164;51.138;16.952;2023-07-20T03:58:30;12.23;;;7.50;;
40459;SDS011;26164;51.138;16.952;2023-07-20T04:00:56;17.33;;;8.35;;
40459;SDS011;26164;51.138;16.952;2023-07-20T04:03:23;12.60;;;7.22;;
40459;SDS011;26164;51.138;16.952;2023-07-20T04:05:53;12.23;;;7.43;;
40459;SDS011;26164;51.138;16.952;2023-07-20T04:08:19;12.60;;;7.15;;
40459;SDS011;26164;51.138;16.952;2023-07-20T04:10:44;13.55;;;7.93;;
40459;SDS011;26164;51.138;16.952;2023-07-20T04:13:12;9.95;;;7.47;;
40459;SDS011;26164;51.138;16.952;2023-07-20T04:15:38;11.45;;;6.70;;
40459;SDS011;26164;51.138;16.952;2023-07-20T04:18:04;10.02;;;6.38;;
40459;SDS011;26164;51.138;16.952;2023-07-20T04:20:30;16.85;;;5.78;;
40459;SDS011;26164;51.138;16.952;2023-07-20T04:22:56;7.63;;;5.00;;
40459;SDS011;26164;51.138;16.952;2023-07-20T04:25:22;11.52;;;6.30;;
40459;SDS011;26164;51.138;16.952;2023-07-20T04:27:48;12.27;;;6.22;;
40459;SDS011;26164;51.138;16.952;2023-07-20T04:30:17;13.27;;;6.45;;
40459;SDS011;26164;51.138;16.952;2023-07-20T04:32:45;9.43;;;6.07;;
40459;SDS011;26164;51.138;16.952;2023-07-20T04:35:17;22.83;;;11.10;;
40459;SDS011;26164;51.138;16.952;2023-07-20T04:37:43;106.47;;;38.17;;
40459;SDS011;26164;51.138;16.952;2023-07-20T04:40:15;43.83;;;16.20;;
40459;SDS011;26164;51.138;16.952;2023-07-20T04:42:41;12.13;;;6.85;;
40459;SDS011;26164;51.138;16.952;2023-07-20T04:45:07;45.30;;;18.50;;
40459;SDS011;26164;51.138;16.952;2023-07-20T04:47:35;15.77;;;8.70;;
40459;SDS011;26164;51.138;16.952;2023-07-20T04:50:01;17.15;;;8.32;;
40459;SDS011;26164;51.138;16.952;2023-07-20T04:52:28;12.60;;;5.93;;
40459;SDS011;26164;51.138;16.952;2023-07-20T04:54:55;11.80;;;7.20;;
40459;SDS011;26164;51.138;16.952;2023-07-20T04:57:21;14.43;;;6.80;;
40459;SDS011;26164;51.138;16.952;2023-07-20T04:59:49;18.90;;;8.60;;
40459;SDS011;26164;51.138;16.952;2023-07-20T05:02:14;12.35;;;7.60;;
40459;SDS011;26164;51.138;16.952;2023-07-20T05:04:40;30.88;;;11.82;;
40459;SDS011;26164;51.138;16.952;2023-07-20T05:07:06;45.33;;;19.10;;
40459;SDS011;26164;51.138;16.952;2023-07-20T05:09:32;17.23;;;9.93;;
40459;SDS011;26164;51.138;16.952;2023-07-20T05:11:58;14.18;;;7.72;;
40459;SDS011;26164;51.138;16.952;2023-07-20T05:14:24;35.55;;;15.30;;
40459;SDS011;26164;51.138;16.952;2023-07-20T05:16:51;28.23;;;12.85;;
40459;SDS011;26164;51.138;16.952;2023-07-20T05:19:17;21.25;;;9.65;;
40459;SDS011;26164;51.138;16.952;2023-07-20T05:21:43;21.15;;;11.27;;
40459;SDS011;26164;51.138;16.952;2023-07-20T05:24:09;17.02;;;8.27;;
40459;SDS011;26164;51.138;16.952;2023-07-20T05:26:35;27.83;;;10.57;;
40459;SDS011;26164;51.138;16.952;2023-07-20T05:29:00;15.57;;;8.70;;
40459;SDS011;26164;51.138;16.952;2023-07-20T05:31:27;14.27;;;7.10;;
40459;SDS011;26164;51.138;16.952;2023-07-20T05:33:55;18.70;;;8.48;;
40459;SDS011;26164;51.138;16.952;2023-07-20T05:36:22;18.02;;;8.18;;
40459;SDS011;26164;51.138;16.952;2023-07-20T05:38:48;17.58;;;8.85;;
40459;SDS011;26164;51.138;16.952;2023-07-20T05:41:14;15.73;;;8.68;;
40459;SDS011;26164;51.138;16.952;2023-07-20T05:43:40;16.50;;;8.68;;
40459;SDS011;26164;51.138;16.952;2023-07-20T05:46:07;20.23;;;8.23;;
40459;SDS011;26164;51.138;16.952;2023-07-20T05:48:33;17.02;;;8.13;;
40459;SDS011;26164;51.138;16.952;2023-07-20T05:50:59;17.02;;;8.25;;
40459;SDS011;26164;51.138;16.952;2023-07-20T05:53:24;13.88;;;7.70;;
40459;SDS011;26164;51.138;16.952;2023-07-20T05:55:54;15.15;;;6.93;;
40459;SDS011;26164;51.138;16.952;2023-07-20T05:58:24;11.38;;;7.00;;
40459;SDS011;26164;51.138;16.952;2023-07-20T06:00:50;13.73;;;7.10;;
40459;SDS011;26164;51.138;16.952;2023-07-20T06:03:16;10.80;;;6.88;;
40459;SDS011;26164;51.138;16.952;2023-07-20T06:05:42;14.73;;;7.18;;
40459;SDS011;26164;51.138;16.952;2023-07-20T06:08:08;10.98;;;6.35;;
40459;SDS011;26164;51.138;16.952;2023-07-20T06:10:34;16.80;;;6.55;;
40459;SDS011;26164;51.138;16.952;2023-07-20T06:13:00;18.48;;;6.45;;
40459;SDS011;26164;51.138;16.952;2023-07-20T06:15:26;12.20;;;5.32;;
40459;SDS011;26164;51.138;16.952;2023-07-20T06:17:53;10.75;;;5.22;;
40459;SDS011;26164;51.138;16.952;2023-07-20T06:20:18;12.48;;;6.28;;
40459;SDS011;26164;51.138;16.952;2023-07-20T06:22:44;8.52;;;6.07;;
40459;SDS011;26164;51.138;16.952;2023-07-20T06:25:11;14.68;;;6.50;;
40459;SDS011;26164;51.138;16.952;2023-07-20T06:27:36;10.82;;;6.25;;
40459;SDS011;26164;51.138;16.952;2023-07-20T06:30:02;10.95;;;5.85;;
40459;SDS011;26164;51.138;16.952;2023-07-20T06:32:28;13.10;;;6.38;;
40459;SDS011;26164;51.138;16.952;2023-07-20T06:34:54;9.35;;;5.28;;
40459;SDS011;26164;51.138;16.952;2023-07-20T06:37:19;12.57;;;5.75;;
40459;SDS011;26164;51.138;16.952;2023-07-20T06:39:45;10.85;;;5.63;;
40459;SDS011;26164;51.138;16.952;2023-07-20T06:42:11;11.57;;;5.57;;
40459;SDS011;26164;51.138;16.952;2023-07-20T06:44:37;11.32;;;5.35;;
40459;SDS011;26164;51.138;16.952;2023-07-20T06:47:03;11.23;;;5.50;;
40459;SDS011;26164;51.138;16.952;2023-07-20T06:49:28;11.55;;;5.50;;
40459;SDS011;26164;51.138;16.952;2023-07-20T06:51:54;9.77;;;5.00;;
40459;SDS011;26164;51.138;16.952;2023-07-20T06:54:20;12.63;;;4.97;;
40459;SDS011;26164;51.138;16.952;2023-07-20T06:56:45;9.80;;;5.13;;
40459;SDS011;26164;51.138;16.952;2023-07-20T06:59:11;11.43;;;4.45;;
40459;SDS011;26164;51.138;16.952;2023-07-20T07:01:37;10.45;;;4.47;;
40459;SDS011;26164;51.138;16.952;2023-07-20T07:04:04;9.30;;;5.20;;
40459;SDS011;26164;51.138;16.952;2023-07-20T07:06:31;13.68;;;4.68;;
40459;SDS011;26164;51.138;16.952;2023-07-20T07:08:57;8.45;;;4.30;;
40459;SDS011;26164;51.138;16.952;2023-07-20T07:11:22;6.32;;;3.60;;
40459;SDS011;26164;51.138;16.952;2023-07-20T07:13:48;5.95;;;3.60;;
40459;SDS011;26164;51.138;16.952;2023-07-20T07:16:16;8.35;;;4.10;;
40459;SDS011;26164;51.138;16.952;2023-07-20T07:18:45;7.13;;;3.72;;
40459;SDS011;26164;51.138;16.952;2023-07-20T07:21:10;7.50;;;3.83;;
40459;SDS011;26164;51.138;16.952;2023-07-20T07:23:37;7.28;;;4.22;;
40459;SDS011;26164;51.138;16.952;2023-07-20T07:26:03;6.10;;;3.85;;
40459;SDS011;26164;51.138;16.952;2023-07-20T07:28:29;7.93;;;4.10;;
40459;SDS011;26164;51.138;16.952;2023-07-20T07:30:55;9.35;;;4.35;;
40459;SDS011;26164;51.138;16.952;2023-07-20T07:33:22;8.07;;;4.43;;
40459;SDS011;26164;51.138;16.952;2023-07-20T07:35:49;7.47;;;4.00;;
40459;SDS011;26164;51.138;16.952;2023-07-20T07:38:15;9.00;;;3.80;;
40459;SDS011;26164;51.138;16.952;2023-07-20T07:40:40;8.23;;;3.20;;
40459;SDS011;26164;51.138;16.952;2023-07-20T07:43:07;8.68;;;3.42;;
40459;SDS011;26164;51.138;16.952;2023-07-20T07:45:34;9.85;;;3.50;;
40459;SDS011;26164;51.138;16.952;2023-07-20T07:48:02;9.20;;;3.40;;
40459;SDS011;26164;51.138;16.952;2023-07-20T07:50:27;9.80;;;2.97;;
40459;SDS011;26164;51.138;16.952;2023-07-20T07:52:54;11.35;;;3.13;;
40459;SDS011;26164;51.138;16.952;2023-07-20T07:55:19;6.50;;;3.08;;
40459;SDS011;26164;51.138;16.952;2023-07-20T07:57:45;6.57;;;3.00;;
40459;SDS011;26164;51.138;16.952;2023-07-20T08:00:13;6.90;;;3.10;;
40459;SDS011;26164;51.138;16.952;2023-07-20T08:02:40;7.50;;;3.13;;
40459;SDS011;26164;51.138;16.952;2023-07-20T08:05:06;7.07;;;3.15;;
40459;SDS011;26164;51.138;16.952;2023-07-20T08:07:33;9.77;;;2.92;;
40459;SDS011;26164;51.138;16.952;2023-07-20T08:09:59;5.82;;;2.20;;
40459;SDS011;26164;51.138;16.952;2023-07-20T08:12:26;7.32;;;2.83;;
40459;SDS011;26164;51.138;16.952;2023-07-20T08:14:52;5.30;;;2.42;;
40459;SDS011;26164;51.138;16.952;2023-07-20T08:17:17;5.03;;;1.80;;
40459;SDS011;26164;51.138;16.952;2023-07-20T08:19:43;3.85;;;2.00;;
40459;SDS011;26164;51.138;16.952;2023-07-20T08:22:09;4.22;;;1.40;;
40459;SDS011;26164;51.138;16.952;2023-07-20T08:24:38;6.22;;;1.60;;
40459;SDS011;26164;51.138;16.952;2023-07-20T08:27:04;6.93;;;1.80;;
40459;SDS011;26164;51.138;16.952;2023-07-20T08:29:30;3.92;;;1.70;;
40459;SDS011;26164;51.138;16.952;2023-07-20T08:31:56;2.78;;;1.60;;
40459;SDS011;26164;51.138;16.952;2023-07-20T08:34:21;6.07;;;1.60;;
40459;SDS011;26164;51.138;16.952;2023-07-20T08:36:47;2.47;;;1.25;;
40459;SDS011;26164;51.138;16.952;2023-07-20T08:39:13;4.22;;;1.30;;
40459;SDS011;26164;51.138;16.952;2023-07-20T08:41:39;5.28;;;1.35;;
40459;SDS011;26164;51.138;16.952;2023-07-20T08:44:05;4.57;;;1.60;;
40459;SDS011;26164;51.138;16.952;2023-07-20T08:46:31;2.83;;;1.20;;
40459;SDS011;26164;51.138;16.952;2023-07-20T08:48:57;3.33;;;1.30;;
40459;SDS011;26164;51.138;16.952;2023-07-20T08:51:23;2.80;;;1.05;;
40459;SDS011;26164;51.138;16.952;2023-07-20T08:53:48;2.30;;;1.05;;
40459;SDS011;26164;51.138;16.952;2023-07-20T08:56:16;3.80;;;1.45;;
40459;SDS011;26164;51.138;16.952;2023-07-20T08:58:43;3.17;;;1.45;;
40459;SDS011;26164;51.138;16.952;2023-07-20T09:01:10;3.03;;;1.48;;
40459;SDS011;26164;51.138;16.952;2023-07-20T09:03:35;5.95;;;1.58;;
40459;SDS011;26164;51.138;16.952;2023-07-20T09:06:05;6.25;;;1.80;;
40459;SDS011;26164;51.138;16.952;2023-07-20T09:08:30;3.33;;;1.40;;
40459;SDS011;26164;51.138;16.952;2023-07-20T09:10:56;4.95;;;1.83;;
40459;SDS011;26164;51.138;16.952;2023-07-20T09:13:24;4.35;;;1.33;;
40459;SDS011;26164;51.138;16.952;2023-07-20T09:15:53;8.45;;;1.42;;
40459;SDS011;26164;51.138;16.952;2023-07-20T09:18:29;4.25;;;1.95;;
40459;SDS011;26164;51.138;16.952;2023-07-20T09:20:58;5.10;;;1.77;;
40459;SDS011;26164;51.138;16.952;2023-07-20T09:23:32;4.57;;;1.75;;
40459;SDS011;26164;51.138;16.952;2023-07-20T09:25:58;3.28;;;1.27;;
40459;SDS011;26164;51.138;16.952;2023-07-20T09:28:24;3.53;;;1.20;;
40459;SDS011;26164;51.138;16.952;2023-07-20T09:30:50;4.25;;;1.30;;
40459;SDS011;26164;51.138;16.952;2023-07-20T09:33:18;8.35;;;1.23;;
40459;SDS011;26164;51.138;16.952;2023-07-20T09:35:45;6.57;;;1.10;;
40459;SDS011;26164;51.138;16.952;2023-07-20T09:38:10;6.35;;;1.52;;
40459;SDS011;26164;51.138;16.952;2023-07-20T09:40:40;2.85;;;1.02;;
40459;SDS011;26164;51.138;16.952;2023-07-20T09:43:07;4.68;;;1.33;;
40459;SDS011;26164;51.138;16.952;2023-07-20T09:45:34;4.47;;;1.45;;
40459;SDS011;26164;51.138;16.952;2023-07-20T09:48:05;2.08;;;0.85;;
40459;SDS011;26164;51.138;16.952;2023-07-20T09:50:32;3.17;;;0.98;;
40459;SDS011;26164;51.138;16.952;2023-07-20T09:52:58;3.05;;;0.90;;
40459;SDS011;26164;51.138;16.952;2023-07-20T09:55:25;1.85;;;0.75;;
40459;SDS011;26164;51.138;16.952;2023-07-20T09:57:51;2.25;;;0.90;;
40459;SDS011;26164;51.138;16.952;2023-07-20T10:00:18;3.03;;;0.90;;
40459;SDS011;26164;51.138;16.952;2023-07-20T10:02:45;1.98;;;0.77;;
40459;SDS011;26164;51.138;16.952;2023-07-20T10:05:12;2.15;;;0.88;;
40459;SDS011;26164;51.138;16.952;2023-07-20T10:07:40;1.83;;;0.80;;
40459;SDS011;26164;51.138;16.952;2023-07-20T10:10:08;2.38;;;0.77;;
40459;SDS011;26164;51.138;16.952;2023-07-20T10:12:36;2.67;;;0.52;;
40459;SDS011;26164;51.138;16.952;2023-07-20T10:15:09;1.58;;;0.60;;
40459;SDS011;26164;51.138;16.952;2023-07-20T10:20:21;1.50;;;0.80;;
40459;SDS011;26164;51.138;16.952;2023-07-20T10:22:47;1.42;;;0.52;;
40459;SDS011;26164;51.138;16.952;2023-07-20T10:25:13;1.90;;;0.75;;
40459;SDS011;26164;51.138;16.952;2023-07-20T10:27:39;1.73;;;0.47;;
40459;SDS011;26164;51.138;16.952;2023-07-20T10:36:53;2.60;;;0.77;;
40459;SDS011;26164;51.138;16.952;2023-07-20T10:39:23;2.65;;;0.80;;
40459;SDS011;26164;51.138;16.952;2023-07-20T10:41:50;2.88;;;1.00;;
40459;SDS011;26164;51.138;16.952;2023-07-20T10:44:18;2.40;;;0.60;;
40459;SDS011;26164;51.138;16.952;2023-07-20T10:46:45;1.92;;;0.80;;
40459;SDS011;26164;51.138;16.952;2023-07-20T10:49:12;1.80;;;0.70;;
40459;SDS011;26164;51.138;16.952;2023-07-20T10:51:39;5.45;;;0.70;;
40459;SDS011;26164;51.138;16.952;2023-07-20T10:54:07;2.08;;;0.85;;
40459;SDS011;26164;51.138;16.952;2023-07-20T10:56:33;2.50;;;0.90;;
40459;SDS011;26164;51.138;16.952;2023-07-20T10:58:59;2.25;;;0.95;;
40459;SDS011;26164;51.138;16.952;2023-07-20T11:01:29;2.88;;;0.80;;
40459;SDS011;26164;51.138;16.952;2023-07-20T11:03:58;2.20;;;0.80;;
40459;SDS011;26164;51.138;16.952;2023-07-20T11:11:30;2.40;;;0.82;;
40459;SDS011;26164;51.138;16.952;2023-07-20T11:13:57;3.72;;;0.82;;
40459;SDS011;26164;51.138;16.952;2023-07-20T11:19:01;2.15;;;0.85;;
40459;SDS011;26164;51.138;16.952;2023-07-20T11:21:27;2.03;;;0.98;;
40459;SDS011;26164;51.138;16.952;2023-07-20T11:23:53;3.60;;;1.95;;
40459;SDS011;26164;51.138;16.952;2023-07-20T11:26:19;3.55;;;1.55;;
40459;SDS011;26164;51.138;16.952;2023-07-20T11:28:50;4.15;;;1.73;;
40459;SDS011;26164;51.138;16.952;2023-07-20T11:31:18;3.53;;;1.70;;
40459;SDS011;26164;51.138;16.952;2023-07-20T11:33:43;3.10;;;1.85;;
40459;SDS011;26164;51.138;16.952;2023-07-20T11:36:09;4.82;;;1.70;;
40459;SDS011;26164;51.138;16.952;2023-07-20T11:38:35;3.58;;;1.40;;
40459;SDS011;26164;51.138;16.952;2023-07-20T11:41:02;4.35;;;1.92;;
40459;SDS011;26164;51.138;16.952;2023-07-20T11:43:28;3.60;;;2.20;;
40459;SDS011;26164;51.138;16.952;2023-07-20T11:45:54;4.63;;;3.10;;
40459;SDS011;26164;51.138;16.952;2023-07-20T11:48:20;6.20;;;3.42;;
40459;SDS011;26164;51.138;16.952;2023-07-20T11:50:46;5.40;;;3.30;;
40459;SDS011;26164;51.138;16.952;2023-07-20T11:53:13;6.15;;;3.50;;
40459;SDS011;26164;51.138;16.952;2023-07-20T11:55:40;4.15;;;3.63;;
40459;SDS011;26164;51.138;16.952;2023-07-20T11:58:07;6.88;;;3.88;;
40459;SDS011;26164;51.138;16.952;2023-07-20T12:00:33;6.43;;;3.33;;
40459;SDS011;26164;51.138;16.952;2023-07-20T12:02:59;7.65;;;3.10;;
40459;SDS011;26164;51.138;16.952;2023-07-20T12:05:25;2.95;;;2.08;;
40459;SDS011;26164;51.138;16.952;2023-07-20T12:07:54;3.35;;;2.05;;
40459;SDS011;26164;51.138;16.952;2023-07-20T12:10:27;3.33;;;1.67;;
40459;SDS011;26164;51.138;16.952;2023-07-20T12:12:53;3.20;;;1.50;;
40459;SDS011;26164;51.138;16.952;2023-07-20T12:15:24;2.85;;;1.80;;
40459;SDS011;26164;51.138;16.952;2023-07-20T12:17:50;5.68;;;1.63;;
40459;SDS011;26164;51.138;16.952;2023-07-20T12:23:01;2.95;;;1.40;;
40459;SDS011;26164;51.138;16.952;2023-07-20T12:28:10;1.88;;;1.08;;
40459;SDS011;26164;51.138;16.952;2023-07-20T12:30:36;3.90;;;1.48;;
40459;SDS011;26164;51.138;16.952;2023-07-20T12:33:02;1.95;;;1.20;;
40459;SDS011;26164;51.138;16.952;2023-07-20T12:35:29;2.20;;;1.42;;
40459;SDS011;26164;51.138;16.952;2023-07-20T12:37:55;2.63;;;1.70;;
40459;SDS011;26164;51.138;16.952;2023-07-20T12:40:22;2.85;;;1.77;;
40459;SDS011;26164;51.138;16.952;2023-07-20T12:42:47;2.47;;;1.60;;
40459;SDS011;26164;51.138;16.952;2023-07-20T12:45:13;5.55;;;1.60;;
40459;SDS011;26164;51.138;16.952;2023-07-20T12:47:39;2.70;;;1.48;;
40459;SDS011;26164;51.138;16.952;2023-07-20T12:50:06;2.88;;;1.30;;
40459;SDS011;26164;51.138;16.952;2023-07-20T12:52:35;6.60;;;1.20;;
40459;SDS011;26164;51.138;16.952;2023-07-20T12:55:02;3.05;;;1.20;;
40459;SDS011;26164;51.138;16.952;2023-07-20T12:57:27;3.78;;;1.10;;
40459;SDS011;26164;51.138;16.952;2023-07-20T12:59:53;4.25;;;1.20;;
40459;SDS011;26164;51.138;16.952;2023-07-20T13:02:19;1.20;;;0.90;;
40459;SDS011;26164;51.138;16.952;2023-07-20T13:04:44;1.42;;;1.00;;
40459;SDS011;26164;51.138;16.952;2023-07-20T13:07:10;3.42;;;0.80;;
40459;SDS011;26164;51.138;16.952;2023-07-20T13:09:37;3.50;;;1.00;;
40459;SDS011;26164;51.138;16.952;2023-07-20T13:12:03;1.10;;;0.77;;
40459;SDS011;26164;51.138;16.952;2023-07-20T13:14:29;2.63;;;0.80;;
40459;SDS011;26164;51.138;16.952;2023-07-20T13:16:57;3.53;;;1.00;;
40459;SDS011;26164;51.138;16.952;2023-07-20T13:19:23;4.82;;;1.00;;
40459;SDS011;26164;51.138;16.952;2023-07-20T13:21:49;8.27;;;1.10;;
40459;SDS011;26164;51.138;16.952;2023-07-20T13:24:15;1.58;;;0.90;;
40459;SDS011;26164;51.138;16.952;2023-07-20T13:26:40;4.15;;;0.90;;
40459;SDS011;26164;51.138;16.952;2023-07-20T13:29:06;1.52;;;0.50;;
40459;SDS011;26164;51.138;16.952;2023-07-20T13:31:35;2.47;;;0.63;;
40459;SDS011;26164;51.138;16.952;2023-07-20T13:34:01;1.35;;;0.60;;
40459;SDS011;26164;51.138;16.952;2023-07-20T13:36:26;1.85;;;0.70;;
40459;SDS011;26164;51.138;16.952;2023-07-20T13:38:52;1.90;;;0.68;;
40459;SDS011;26164;51.138;16.952;2023-07-20T13:41:18;1.73;;;0.50;;
40459;SDS011;26164;51.138;16.952;2023-07-20T13:43:44;1.70;;;0.60;;
40459;SDS011;26164;51.138;16.952;2023-07-20T13:46:10;1.92;;;0.80;;
40459;SDS011;26164;51.138;16.952;2023-07-20T13:48:36;4.05;;;0.68;;
40459;SDS011;26164;51.138;16.952;2023-07-20T13:51:02;2.03;;;0.70;;
40459;SDS011;26164;51.138;16.952;2023-07-20T13:53:28;1.88;;;0.80;;
40459;SDS011;26164;51.138;16.952;2023-07-20T13:55:54;2.50;;;0.88;;
40459;SDS011;26164;51.138;16.952;2023-07-20T13:58:19;1.60;;;0.57;;
40459;SDS011;26164;51.138;16.952;2023-07-20T14:00:45;3.42;;;0.70;;
40459;SDS011;26164;51.138;16.952;2023-07-20T14:03:11;1.45;;;0.60;;
40459;SDS011;26164;51.138;16.952;2023-07-20T14:05:37;1.52;;;0.68;;
40459;SDS011;26164;51.138;16.952;2023-07-20T14:08:02;1.60;;;0.60;;
40459;SDS011;26164;51.138;16.952;2023-07-20T14:10:28;1.00;;;0.50;;
40459;SDS011;26164;51.138;16.952;2023-07-20T14:12:54;3.38;;;0.55;;
40459;SDS011;26164;51.138;16.952;2023-07-20T14:15:19;0.77;;;0.43;;
40459;SDS011;26164;51.138;16.952;2023-07-20T14:17:45;1.88;;;0.50;;
40459;SDS011;26164;51.138;16.952;2023-07-20T14:20:11;1.13;;;0.47;;
40459;SDS011;26164;51.138;16.952;2023-07-20T14:22:37;2.00;;;0.50;;
40459;SDS011;26164;51.138;16.952;2023-07-20T14:25:02;1.45;;;0.60;;
40459;SDS011;26164;51.138;16.952;2023-07-20T14:27:28;3.25;;;0.50;;
40459;SDS011;26164;51.138;16.952;2023-07-20T14:29:54;1.38;;;0.50;;
40459;SDS011;26164;51.138;16.952;2023-07-20T14:32:20;2.15;;;0.60;;
40459;SDS011;26164;51.138;16.952;2023-07-20T14:34:46;5.55;;;0.60;;
40459;SDS011;26164;51.138;16.952;2023-07-20T14:37:11;1.70;;;0.43;;
40459;SDS011;26164;51.138;16.952;2023-07-20T14:39:38;2.45;;;0.60;;
40459;SDS011;26164;51.138;16.952;2023-07-20T14:42:04;1.10;;;0.30;;
40459;SDS011;26164;51.138;16.952;2023-07-20T14:44:29;1.08;;;0.50;;
40459;SDS011;26164;51.138;16.952;2023-07-20T14:46:55;2.00;;;0.60;;
40459;SDS011;26164;51.138;16.952;2023-07-20T14:49:21;2.67;;;0.57;;
40459;SDS011;26164;51.138;16.952;2023-07-20T14:51:47;1.55;;;0.73;;
40459;SDS011;26164;51.138;16.952;2023-07-20T14:54:13;2.35;;;0.90;;
40459;SDS011;26164;51.138;16.952;2023-07-20T14:56:39;3.33;;;1.15;;
40459;SDS011;26164;51.138;16.952;2023-07-20T14:59:05;2.88;;;1.50;;